Time;durP1;ratioP1;P1;durP2;ratioP2;P2;SDS_P1;SDS_P2;PMS_P1;PMS_P2;Temp;Humidity;BMP_temperature;BMP_pressure;BME280_temperature;BME280_humidity;BME280_pressure;Samples;Min_cycle;Max_cycle;Signal;HPM_P1;HPM_P2
2023/04/11 00:00:45;;;;;;;8.13;1.90;;;;;;;9.17;100.00;100675.22;5063687;28;20482;-71
2023/04/11 00:03:11;;;;;;;14.00;2.75;;;;;;;9.21;100.00;100673.13;5084395;28;20399;-71
2023/04/11 00:05:36;;;;;;;8.38;1.33;;;;;;;9.08;100.00;100671.75;5065110;28;20165;-71
2023/04/11 00:08:02;;;;;;;8.60;1.20;;;;;;;9.00;100.00;100674.25;5066207;28;20032;-71
2023/04/11 00:10:27;;;;;;;8.55;1.10;;;;;;;8.99;100.00;100672.66;5080591;28;20032;-71
2023/04/11 00:12:55;;;;;;;10.48;1.40;;;;;;;9.08;100.00;100676.94;5077973;28;20040;-71
2023/04/11 00:15:22;;;;;;;11.68;2.47;;;;;;;9.20;100.00;100689.66;5083738;28;20042;-72
2023/04/11 00:17:48;;;;;;;11.82;2.47;;;;;;;9.14;100.00;100684.09;5059396;28;20063;-71
2023/04/11 00:20:14;;;;;;;12.60;1.65;;;;;;;9.24;100.00;100675.44;5083577;28;20060;-71
2023/04/11 00:22:39;;;;;;;8.60;1.50;;;;;;;9.16;100.00;100673.59;5043608;28;20090;-71
2023/04/11 00:25:05;;;;;;;8.07;1.90;;;;;;;9.19;100.00;100675.88;5064545;28;20930;-72
2023/04/11 00:27:31;;;;;;;9.43;1.80;;;;;;;9.25;100.00;100677.03;5044806;28;20044;-71
2023/04/11 00:29:57;;;;;;;12.32;2.20;;;;;;;9.21;100.00;100679.16;5062773;28;20036;-71
2023/04/11 00:32:23;;;;;;;13.52;1.90;;;;;;;9.26;100.00;100670.94;5063120;28;20036;-71
2023/04/11 00:34:49;;;;;;;10.68;2.10;;;;;;;9.28;100.00;100674.16;5062946;28;20235;-72
2023/04/11 00:37:16;;;;;;;14.73;2.25;;;;;;;9.27;100.00;100677.75;5045110;28;20055;-71
2023/04/11 00:39:43;;;;;;;12.68;2.65;;;;;;;9.17;100.00;100667.44;5063661;28;20677;-71
2023/04/11 00:42:10;;;;;;;18.05;2.22;;;;;;;9.23;100.00;100672.06;5062049;28;20268;-72
2023/04/11 00:44:36;;;;;;;16.45;2.60;;;;;;;9.19;100.00;100677.66;5063593;28;20092;-72
2023/04/11 00:47:04;;;;;;;16.17;2.38;;;;;;;9.16;100.00;100677.00;5073588;28;20502;-71
2023/04/11 00:49:30;;;;;;;16.60;2.33;;;;;;;9.22;100.00;100678.16;5041411;28;20024;-72
2023/04/11 00:51:57;;;;;;;12.90;2.17;;;;;;;9.12;100.00;100686.03;5043461;28;20080;-71
2023/04/11 00:54:28;;;;;;;15.73;2.53;;;;;;;9.15;100.00;100687.47;5064984;28;20039;-72
2023/04/11 00:56:54;;;;;;;17.35;2.13;;;;;;;9.22;100.00;100680.75;5062920;28;20093;-71
2023/04/11 00:59:20;;;;;;;14.25;2.55;;;;;;;9.16;100.00;100682.16;5058875;28;20051;-71
2023/04/11 01:01:48;;;;;;;20.58;2.55;;;;;;;9.18;100.00;100683.81;5058645;28;20028;-71
2023/04/11 01:04:16;;;;;;;20.65;2.15;;;;;;;9.16;100.00;100676.19;5064039;28;20086;-71
2023/04/11 01:06:46;;;;;;;20.70;3.55;;;;;;;9.15;100.00;100682.31;5047816;28;20401;-72
2023/04/11 01:09:13;;;;;;;11.00;1.90;;;;;;;9.22;100.00;100678.16;5064324;28;20056;-71
2023/04/11 01:11:38;;;;;;;14.25;2.35;;;;;;;9.06;100.00;100684.03;5065709;28;20393;-71
2023/04/11 01:14:04;;;;;;;19.23;2.60;;;;;;;8.91;100.00;100683.75;5080255;28;20040;-72
2023/04/11 01:16:29;;;;;;;16.15;2.22;;;;;;;8.91;100.00;100683.75;5059158;28;20024;-72
2023/04/11 01:18:55;;;;;;;12.13;2.22;;;;;;;8.94;100.00;100677.44;5063604;28;20036;-71
2023/04/11 01:21:23;;;;;;;16.63;3.08;;;;;;;8.98;100.00;100688.31;5061820;28;20506;-72
2023/04/11 01:23:51;;;;;;;17.60;3.85;;;;;;;8.97;100.00;100679.75;5059994;28;20036;-71
2023/04/11 01:26:17;;;;;;;26.30;3.03;;;;;;;9.06;100.00;100691.78;5064491;28;20026;-72
2023/04/11 01:28:43;;;;;;;14.40;2.30;;;;;;;9.03;100.00;100692.09;5063374;28;20028;-72
2023/04/11 01:31:08;;;;;;;22.33;3.13;;;;;;;9.05;99.95;100691.94;5076123;28;20028;-71
2023/04/11 01:33:34;;;;;;;24.67;3.33;;;;;;;9.06;99.67;100681.44;5059950;28;20402;-70
2023/04/11 01:36:00;;;;;;;17.20;3.40;;;;;;;9.00;99.25;100681.22;5060176;28;20478;-71
2023/04/11 01:38:25;;;;;;;14.82;2.90;;;;;;;8.92;99.87;100671.63;5060525;28;20444;-71
2023/04/11 01:40:53;;;;;;;20.17;3.78;;;;;;;8.86;100.00;100670.44;5078087;28;20025;-71
2023/04/11 01:43:19;;;;;;;35.95;3.40;;;;;;;8.83;100.00;100680.25;5064704;28;20103;-72
2023/04/11 01:45:45;;;;;;;27.33;3.22;;;;;;;8.84;99.78;100694.81;5061634;28;20493;-72
2023/04/11 01:48:10;;;;;;;25.05;2.67;;;;;;;8.86;99.90;100696.28;5059764;28;20051;-72
2023/04/11 01:50:37;;;;;;;20.33;3.65;;;;;;;8.77;100.00;100697.16;5059593;28;20051;-71
2023/04/11 01:53:03;;;;;;;13.25;2.42;;;;;;;8.60;100.00;100700.56;5060146;28;20206;-71
2023/04/11 01:55:29;;;;;;;22.05;3.25;;;;;;;8.54;100.00;100699.38;5064050;28;20016;-71
2023/04/11 01:57:55;;;;;;;20.17;2.67;;;;;;;8.63;100.00;100702.84;5048492;28;20634;-71
2023/04/11 02:00:20;;;;;;;16.85;2.38;;;;;;;8.65;100.00;100703.53;5062740;28;20024;-72
2023/04/11 02:02:46;;;;;;;21.50;2.47;;;;;;;8.65;100.00;100701.75;5082514;28;20585;-72
2023/04/11 02:05:11;;;;;;;18.02;2.47;;;;;;;8.61;99.56;100702.16;5062733;28;20062;-72
2023/04/11 02:07:37;;;;;;;17.55;2.88;;;;;;;8.58;99.94;100695.53;5064250;28;20043;-72
2023/04/11 02:10:03;;;;;;;18.67;3.42;;;;;;;8.46;99.99;100700.09;5082933;28;20081;-72
2023/04/11 02:12:29;;;;;;;20.20;2.67;;;;;;;8.50;99.75;100713.53;5047735;28;20119;-71
2023/04/11 02:14:54;;;;;;;23.02;3.80;;;;;;;8.51;99.63;100705.66;5055569;28;20027;-71
2023/04/11 02:17:21;;;;;;;28.20;2.47;;;;;;;8.49;100.00;100711.91;5067747;28;20093;-71
2023/04/11 02:19:46;;;;;;;18.08;3.00;;;;;;;8.47;99.82;100714.63;5067301;28;20036;-71
2023/04/11 02:22:14;;;;;;;25.58;3.60;;;;;;;8.41;99.98;100715.16;5082355;28;20032;-71
2023/04/11 02:24:39;;;;;;;19.15;2.97;;;;;;;8.37;100.00;100717.22;5086253;28;20028;-71
2023/04/11 02:27:05;;;;;;;24.45;3.03;;;;;;;8.25;100.00;100712.38;5065269;28;20043;-72
2023/04/11 02:29:31;;;;;;;24.95;3.35;;;;;;;8.36;100.00;100717.38;5065821;28;20032;-71
2023/04/11 02:31:56;;;;;;;23.73;3.35;;;;;;;8.33;100.00;100720.25;5064481;22;20052;-77
2023/04/11 02:34:22;;;;;;;25.90;3.55;;;;;;;8.38;100.00;100726.63;5049231;28;20024;-78
2023/04/11 02:36:48;;;;;;;22.80;2.78;;;;;;;8.30;100.00;100720.53;5050537;28;20073;-77
2023/04/11 02:39:14;;;;;;;21.80;3.15;;;;;;;8.31;100.00;100722.97;5050179;28;20079;-77
2023/04/11 02:41:42;;;;;;;24.33;4.15;;;;;;;8.31;100.00;100729.91;5030114;28;20041;-77
2023/04/11 02:44:10;;;;;;;25.35;4.80;;;;;;;8.22;100.00;100730.78;5043154;28;20033;-77
2023/04/11 02:46:37;;;;;;;21.67;3.55;;;;;;;8.37;99.47;100734.50;5046531;28;20546;-77
2023/04/11 02:49:05;;;;;;;23.35;3.67;;;;;;;8.33;99.21;100739.13;5029226;28;20037;-77
2023/04/11 02:51:32;;;;;;;27.60;3.60;;;;;;;8.31;99.46;100727.34;5027018;28;20393;-77
2023/04/11 02:53:58;;;;;;;27.25;3.17;;;;;;;8.32;99.43;100731.53;5044958;28;20091;-77
2023/04/11 02:56:23;;;;;;;24.63;4.50;;;;;;;8.38;99.38;100729.19;5015125;28;20025;-77
2023/04/11 02:58:53;;;;;;;29.52;3.30;;;;;;;8.33;98.71;100730.59;5023810;28;20045;-77
2023/04/11 03:01:23;;;;;;;21.77;2.88;;;;;;;8.26;99.78;100737.28;5026647;28;20083;-76
2023/04/11 03:03:49;;;;;;;32.10;3.25;;;;;;;8.22;99.88;100741.09;5043691;28;20174;-76
2023/04/11 03:06:15;;;;;;;28.50;3.33;;;;;;;8.30;99.88;100741.19;5043621;28;20120;-76
2023/04/11 03:08:42;;;;;;;29.92;3.55;;;;;;;8.28;99.98;100732.78;5014927;28;20029;-77
2023/04/11 03:11:07;;;;;;;21.38;3.58;;;;;;;8.27;99.21;100739.72;5039682;28;20071;-77
2023/04/11 03:13:35;;;;;;;19.67;3.55;;;;;;;8.19;99.86;100734.44;5028824;28;20037;-77
2023/04/11 03:16:01;;;;;;;20.55;3.22;;;;;;;8.22;100.00;100736.75;5013100;28;20041;-77
2023/04/11 03:18:29;;;;;;;20.88;4.03;;;;;;;8.18;99.64;100737.97;5025381;28;20034;-77
2023/04/11 03:20:57;;;;;;;19.80;3.42;;;;;;;8.21;98.68;100734.28;5038896;28;20034;-77
2023/04/11 03:23:22;;;;;;;29.52;4.50;;;;;;;8.21;98.39;100726.53;5045511;28;20072;-77
2023/04/11 03:25:48;;;;;;;24.67;3.17;;;;;;;8.25;98.47;100728.72;5009999;28;20078;-77
2023/04/11 03:28:16;;;;;;;19.10;3.60;;;;;;;8.19;98.42;100735.28;5014290;28;20029;-77
2023/04/11 03:30:42;;;;;;;17.90;3.95;;;;;;;8.18;99.25;100740.56;5029671;28;20021;-77
2023/04/11 03:33:10;;;;;;;22.42;4.18;;;;;;;8.14;99.55;100747.78;5008922;28;20036;-77
2023/04/11 03:35:36;;;;;;;24.73;4.15;;;;;;;8.23;99.15;100740.13;5032255;28;20025;-77
2023/04/11 03:38:02;;;;;;;20.95;2.83;;;;;;;8.16;99.42;100745.06;5030641;28;20090;-77
2023/04/11 03:40:27;;;;;;;36.13;4.78;;;;;;;8.17;99.95;100755.25;5028903;28;20886;-77
2023/04/11 03:43:05;;;;;;;25.75;3.55;;;;;;;8.18;100.00;100749.13;5026433;28;20037;-78
2023/04/11 03:45:33;;;;;;;22.90;4.80;;;;;;;8.21;99.56;100752.38;5029539;28;20128;-77
2023/04/11 03:48:01;;;;;;;30.77;5.55;;;;;;;8.18;98.32;100762.03;5048893;28;20033;-77
2023/04/11 03:50:39;;;;;;;23.52;3.17;;;;;;;8.22;97.70;100769.50;5030024;28;20040;-77
2023/04/11 03:53:06;;;;;;;23.60;4.25;;;;;;;8.26;97.23;100776.03;5022425;28;20531;-77
2023/04/11 03:55:32;;;;;;;26.23;3.63;;;;;;;8.24;96.45;100783.09;5022888;28;20418;-77
2023/04/11 03:57:59;;;;;;;27.17;4.15;;;;;;;8.26;96.21;100781.19;5028274;28;20029;-76
2023/04/11 04:00:27;;;;;;;26.85;3.45;;;;;;;8.27;96.08;100783.63;5010147;28;20018;-77
2023/04/11 04:03:02;;;;;;;23.52;3.45;;;;;;;8.19;96.33;100791.25;5013559;28;20116;-77
2023/04/11 04:05:27;;;;;;;22.33;3.85;;;;;;;8.16;96.53;100794.13;5027222;28;20163;-77
2023/04/11 04:07:53;;;;;;;30.13;4.30;;;;;;;8.15;97.34;100795.09;5026939;28;20041;-78
2023/04/11 04:10:25;;;;;;;28.80;5.25;;;;;;;8.17;97.17;100795.75;5027831;28;20037;-77
2023/04/11 04:12:52;;;;;;;18.70;3.70;;;;;;;8.10;97.74;100789.50;5042981;28;20037;-77
2023/04/11 04:15:20;;;;;;;25.50;3.38;;;;;;;8.22;96.91;100791.00;5042583;28;20379;-77
2023/04/11 04:17:47;;;;;;;22.95;4.13;;;;;;;8.18;96.45;100787.06;5040392;28;20045;-77
2023/04/11 04:20:33;;;;;;;28.02;3.75;;;;;;;8.23;96.28;100784.88;5046591;28;20048;-77
2023/04/11 04:22:59;;;;;;;31.52;4.38;;;;;;;8.17;96.23;100782.84;5028132;28;20490;-78
2023/04/11 04:25:36;;;;;;;19.70;2.80;;;;;;;8.08;96.87;100792.25;5036788;28;20025;-77
2023/04/11 04:28:02;;;;;;;27.48;3.40;;;;;;;8.20;95.93;100787.72;5024918;28;20670;-77
2023/04/11 04:30:36;;;;;;;15.73;3.40;;;;;;;8.14;95.69;100793.47;5012096;28;20490;-77
2023/04/11 04:33:10;;;;;;;25.17;3.15;;;;;;;8.06;96.50;100801.91;5008865;28;20029;-77
2023/04/11 04:35:37;;;;;;;21.35;3.08;;;;;;;8.04;96.27;100792.66;5039576;28;20040;-77
2023/04/11 04:38:05;;;;;;;33.53;3.78;;;;;;;8.05;95.60;100795.13;5024573;28;20048;-77
2023/04/11 04:40:48;;;;;;;17.75;2.85;;;;;;;8.17;95.54;100799.16;5026961;28;20029;-77
2023/04/11 04:43:17;;;;;;;24.33;4.38;;;;;;;8.08;94.21;100801.75;5006226;28;20033;-77
2023/04/11 04:45:49;;;;;;;23.58;3.15;;;;;;;8.13;93.92;100807.31;5028933;28;20032;-77
2023/04/11 04:48:24;;;;;;;20.75;3.28;;;;;;;8.04;93.63;100808.16;5023887;28;20033;-77
2023/04/11 04:50:49;;;;;;;20.52;3.35;;;;;;;8.00;94.04;100815.38;5041576;28;20471;-77
2023/04/11 04:53:15;;;;;;;28.83;4.03;;;;;;;8.09;93.01;100822.28;5038671;28;20120;-77
2023/04/11 04:55:46;;;;;;;25.42;3.30;;;;;;;8.09;92.18;100811.16;5012921;28;20116;-77
2023/04/11 04:58:13;;;;;;;25.38;4.55;;;;;;;8.06;92.30;100817.41;5024714;28;20036;-76
2023/04/11 05:00:39;;;;;;;23.95;3.72;;;;;;;8.07;92.08;100819.03;5012869;28;21815;-77
2023/04/11 05:03:09;;;;;;;19.20;3.38;;;;;;;8.07;92.19;100829.34;5025227;28;20029;-77
2023/04/11 05:05:35;;;;;;;38.17;6.03;;;;;;;8.04;92.96;100831.41;5011452;28;20025;-76
2023/04/11 05:08:02;;;;;;;29.30;3.58;;;;;;;8.02;93.48;100839.28;5027126;28;20095;-77
2023/04/11 05:10:30;;;;;;;20.33;3.72;;;;;;;8.03;93.50;100835.75;5042150;28;20094;-77
2023/04/11 05:12:56;;;;;;;24.92;4.30;;;;;;;7.95;93.74;100826.13;5049638;28;20037;-78
2023/04/11 05:15:22;;;;;;;18.77;4.05;;;;;;;7.93;94.75;100838.34;5041409;28;20067;-77
2023/04/11 05:17:48;;;;;;;27.48;3.72;;;;;;;7.90;95.19;100838.63;5029408;28;20049;-77
2023/04/11 05:20:15;;;;;;;26.27;3.67;;;;;;;7.99;95.12;100840.38;5028675;28;20032;-77
2023/04/11 05:22:44;;;;;;;21.33;3.83;;;;;;;7.93;96.50;100848.69;5015101;28;20115;-76
2023/04/11 05:25:10;;;;;;;21.35;3.75;;;;;;;8.02;96.73;100851.38;5020589;28;20513;-76
2023/04/11 05:27:38;;;;;;;24.75;3.78;;;;;;;7.93;96.45;100861.59;5011164;28;20036;-77
2023/04/11 05:30:05;;;;;;;18.45;3.78;;;;;;;7.97;95.49;100856.97;5010967;28;20033;-77
2023/04/11 05:32:34;;;;;;;15.70;4.68;;;;;;;8.03;95.62;100859.00;5010367;28;20029;-79
2023/04/11 05:35:00;;;;;;;18.17;3.08;;;;;;;8.02;94.75;100861.72;5039442;28;20031;-77
2023/04/11 05:37:35;;;;;;;23.27;3.60;;;;;;;7.94;94.61;100863.22;5021040;28;20045;-77
2023/04/11 05:40:01;;;;;;;23.80;4.53;;;;;;;7.91;94.30;100875.56;5040452;28;20121;-78
2023/04/11 05:42:26;;;;;;;26.60;3.78;;;;;;;7.91;94.51;100883.31;5026407;28;20033;-77
2023/04/11 05:44:52;;;;;;;28.67;4.20;;;;;;;8.02;94.56;100878.00;5027869;28;20033;-76
2023/04/11 05:47:17;;;;;;;19.45;3.65;;;;;;;7.95;93.86;100882.13;5027819;28;20067;-77
2023/04/11 05:49:43;;;;;;;24.08;3.65;;;;;;;7.96;92.59;100887.13;5023963;28;20032;-77
2023/04/11 05:52:08;;;;;;;20.40;3.80;;;;;;;7.97;92.64;100888.78;5027649;28;20052;-77
2023/04/11 05:54:35;;;;;;;30.27;4.82;;;;;;;8.02;92.54;100903.03;5034160;28;20028;-77
2023/04/11 05:57:02;;;;;;;29.98;4.47;;;;;;;8.04;91.67;100901.13;5012319;28;20120;-77
2023/04/11 05:59:31;;;;;;;21.42;4.18;;;;;;;7.99;90.57;100907.53;5047052;28;20025;-76
2023/04/11 06:01:57;;;;;;;18.75;3.55;;;;;;;7.97;90.57;100906.84;5029495;28;20132;-77
2023/04/11 06:04:23;;;;;;;18.98;4.32;;;;;;;8.10;90.24;100905.75;5050913;28;20039;-77
2023/04/11 06:06:48;;;;;;;23.75;4.03;;;;;;;8.13;89.52;100920.97;5033756;28;20037;-76
2023/04/11 06:09:14;;;;;;;25.30;4.28;;;;;;;8.13;89.87;100923.56;5047273;28;20094;-77
2023/04/11 06:11:39;;;;;;;23.05;4.47;;;;;;;8.16;90.44;100920.72;5034142;28;20024;-77
2023/04/11 06:14:05;;;;;;;19.23;3.88;;;;;;;8.17;89.63;100919.75;5012563;28;20041;-77
2023/04/11 06:16:32;;;;;;;22.50;5.07;;;;;;;8.21;89.86;100918.50;5017026;28;20036;-77
2023/04/11 06:18:57;;;;;;;19.75;4.43;;;;;;;8.22;90.13;100925.31;5050153;28;20043;-77
2023/04/11 06:21:23;;;;;;;25.45;4.47;;;;;;;8.20;90.24;100927.22;5036284;28;20037;-76
2023/04/11 06:23:49;;;;;;;19.30;4.55;;;;;;;8.12;90.98;100924.53;5050690;28;20037;-78
2023/04/11 06:26:14;;;;;;;20.95;3.78;;;;;;;8.22;90.99;100935.66;5051033;28;20025;-76
2023/04/11 06:28:39;;;;;;;25.75;4.68;;;;;;;8.32;89.99;100939.03;5034967;28;20414;-77
2023/04/11 06:31:08;;;;;;;26.55;4.72;;;;;;;8.32;90.01;100940.81;5033451;28;20033;-77
2023/04/11 06:33:33;;;;;;;29.42;4.40;;;;;;;8.35;89.40;100937.97;5032871;28;20152;-77
2023/04/11 06:35:59;;;;;;;17.90;3.28;;;;;;;8.43;89.30;100945.03;5057111;28;20041;-77
2023/04/11 06:38:24;;;;;;;25.25;3.75;;;;;;;8.51;89.71;100942.56;5027835;28;20041;-77
2023/04/11 06:40:51;;;;;;;22.05;4.28;;;;;;;8.52;90.19;100945.03;5032655;28;20033;-77
2023/04/11 06:43:16;;;;;;;25.45;4.25;;;;;;;8.61;89.16;100945.13;5044954;28;20044;-77
2023/04/11 06:45:42;;;;;;;27.10;3.58;;;;;;;8.65;89.34;100951.69;5030815;28;20039;-76
2023/04/11 06:48:07;;;;;;;33.38;7.82;;;;;;;8.72;88.72;100953.56;5029115;28;20033;-77
2023/04/11 06:50:36;;;;;;;15.80;3.20;;;;;;;8.83;87.39;100954.34;5033430;28;20403;-77
2023/04/11 06:53:02;;;;;;;23.42;3.45;;;;;;;9.05;87.30;100945.44;5033324;28;20036;-77
2023/04/11 06:55:27;;;;;;;17.70;2.63;;;;;;;9.22;86.55;100962.78;5045905;28;20032;-76
2023/04/11 06:57:53;;;;;;;16.33;3.10;;;;;;;9.14;86.26;100963.50;5033368;28;20563;-77
2023/04/11 07:00:19;;;;;;;18.88;2.63;;;;;;;8.86;86.76;100956.66;5025557;28;20391;-78
2023/04/11 07:02:44;;;;;;;21.38;2.83;;;;;;;9.82;83.45;100962.31;5028631;28;20051;-77
2023/04/11 07:05:10;;;;;;;18.75;2.92;;;;;;;10.73;78.47;100958.69;5028726;28;20045;-77
2023/04/11 07:07:36;;;;;;;24.30;4.07;;;;;;;10.77;75.83;100957.41;5035779;28;20029;-77
2023/04/11 07:10:02;;;;;;;18.90;2.70;;;;;;;10.40;77.35;100960.25;5045294;28;20059;-76
2023/04/11 07:12:27;;;;;;;17.33;3.83;;;;;;;10.85;74.08;100960.06;5041855;28;20036;-77
2023/04/11 07:14:52;;;;;;;14.20;2.65;;;;;;;11.27;73.45;100968.84;5026051;28;20502;-77
2023/04/11 07:17:18;;;;;;;14.80;2.35;;;;;;;10.88;74.37;100971.91;5021896;28;20102;-77
2023/04/11 07:19:43;;;;;;;15.18;2.47;;;;;;;10.52;74.90;100974.59;5039650;28;20032;-79
2023/04/11 07:22:09;;;;;;;21.88;2.47;;;;;;;10.27;75.16;100976.16;5022124;28;20040;-77
2023/04/11 07:24:35;;;;;;;15.18;2.53;;;;;;;10.46;74.18;100970.81;5031788;28;20056;-77
2023/04/11 07:27:01;;;;;;;11.77;2.20;;;;;;;10.14;76.31;100982.53;5027178;28;20048;-77
2023/04/11 07:29:27;;;;;;;18.15;3.20;;;;;;;10.37;75.77;100982.09;5019710;28;20021;-77
2023/04/11 07:31:53;;;;;;;19.13;2.67;;;;;;;11.44;73.00;100975.72;5036326;28;20466;-77
2023/04/11 07:34:18;;;;;;;21.08;3.30;;;;;;;11.34;71.00;100969.88;5029483;28;20453;-78
2023/04/11 07:36:44;;;;;;;13.85;2.55;;;;;;;10.88;72.79;100983.09;4999871;28;20041;-77
2023/04/11 07:39:11;;;;;;;11.02;2.10;;;;;;;11.20;70.16;100980.81;5028028;28;20300;-79
2023/04/11 07:41:37;;;;;;;11.00;2.20;;;;;;;12.10;67.95;100972.50;5006799;28;20124;-78
2023/04/11 07:44:05;;;;;;;14.48;2.30;;;;;;;12.68;65.82;100968.88;5025875;28;20049;-76
2023/04/11 07:46:31;;;;;;;14.23;2.30;;;;;;;13.43;63.28;100965.88;5010134;28;20029;-77
2023/04/11 07:48:56;;;;;;;14.50;1.85;;;;;;;13.96;61.56;100970.47;5023587;28;20025;-76
2023/04/11 07:51:21;;;;;;;13.63;1.98;;;;;;;14.62;58.98;100969.91;5041683;28;20499;-78
2023/04/11 07:53:47;;;;;;;13.57;2.22;;;;;;;14.64;57.58;100971.38;5043260;28;20095;-78
2023/04/11 07:56:13;;;;;;;15.60;1.98;;;;;;;15.06;56.69;100975.16;5039279;28;20033;-78
2023/04/11 07:58:39;;;;;;;15.05;2.83;;;;;;;14.88;57.23;100982.53;5022718;28;20527;-78
2023/04/11 08:01:18;;;;;;;13.88;2.05;;;;;;;14.02;57.53;100972.38;5046626;28;20038;-77
2023/04/11 08:03:43;;;;;;;13.40;1.33;;;;;;;13.95;56.67;100982.66;5039276;28;20041;-78
2023/04/11 08:06:10;;;;;;;15.70;1.60;;;;;;;13.95;57.71;100982.66;5045623;28;20025;-78
2023/04/11 08:08:35;;;;;;;11.52;1.60;;;;;;;13.94;59.25;100982.88;5030840;28;20517;-77
2023/04/11 08:11:01;;;;;;;11.32;1.65;;;;;;;13.68;57.22;100994.41;5043432;28;20063;-77
2023/04/11 08:13:26;;;;;;;7.38;1.65;;;;;;;13.26;58.97;100995.56;5044354;28;20069;-78
2023/04/11 08:15:52;;;;;;;11.18;1.48;;;;;;;13.08;58.79;100994.97;5047061;28;20043;-77
2023/04/11 08:18:20;;;;;;;15.13;2.17;;;;;;;13.23;57.33;100993.28;5013537;28;20040;-77
2023/04/11 08:20:47;;;;;;;11.50;2.90;;;;;;;13.15;57.69;101009.75;5012592;28;20051;-77
2023/04/11 08:23:14;;;;;;;9.05;1.70;;;;;;;12.44;59.45;101009.53;5025673;28;20038;-78
2023/04/11 08:25:40;;;;;;;10.25;2.13;;;;;;;12.84;59.45;101012.25;5045882;28;20128;-78
2023/04/11 08:28:05;;;;;;;10.65;1.98;;;;;;;12.91;58.62;101009.81;5025456;28;20041;-77
2023/04/11 08:30:31;;;;;;;11.15;2.05;;;;;;;13.88;58.08;101007.00;5035962;28;20131;-77
2023/04/11 08:32:57;;;;;;;6.95;1.98;;;;;;;14.57;55.39;101007.00;5043237;28;20041;-77
2023/04/11 08:35:22;;;;;;;12.15;2.47;;;;;;;14.73;53.20;101011.25;5035988;28;20078;-79
2023/04/11 08:37:48;;;;;;;9.02;2.28;;;;;;;14.77;52.27;101021.16;5026293;28;20136;-81
2023/04/11 08:40:15;;;;;;;13.00;2.13;;;;;;;14.91;52.60;101016.94;5023629;28;20034;-77
2023/04/11 08:42:41;;;;;;;12.75;1.70;;;;;;;15.17;52.25;101026.13;5024776;28;20036;-77
2023/04/11 08:45:08;;;;;;;11.30;1.92;;;;;;;14.70;52.57;101032.50;5037505;28;20032;-77
2023/04/11 08:47:33;;;;;;;14.57;2.33;;;;;;;15.02;51.46;101017.50;5004902;28;20056;-77
2023/04/11 08:49:59;;;;;;;9.93;1.98;;;;;;;15.08;51.31;101027.22;5024807;28;20132;-76
2023/04/11 08:52:25;;;;;;;7.20;2.30;;;;;;;15.09;50.35;101021.00;5041735;28;20040;-77
2023/04/11 08:54:55;;;;;;;8.48;2.22;;;;;;;15.74;50.73;101017.59;5033738;22;20042;-67
2023/04/11 08:57:25;;;;;;;13.80;2.15;;;;;;;15.67;48.39;101021.94;5013798;28;20049;-68
2023/04/11 08:59:51;;;;;;;9.75;1.40;;;;;;;14.89;49.46;101018.91;5016057;28;20136;-68
2023/04/11 09:02:16;;;;;;;8.98;1.60;;;;;;;14.16;51.94;101023.75;5018676;28;20037;-68
2023/04/11 09:04:43;;;;;;;8.50;1.17;;;;;;;14.44;52.75;101014.59;4997031;28;20068;-67
2023/04/11 09:07:10;;;;;;;14.00;2.38;;;;;;;14.41;52.22;101019.16;4982606;28;20790;-67
2023/04/11 09:09:36;;;;;;;11.05;1.73;;;;;;;15.17;50.91;101023.53;4998734;28;20025;-67
2023/04/11 09:12:03;;;;;;;9.30;1.52;;;;;;;14.41;50.55;101026.19;4996405;28;20030;-68
2023/04/11 09:14:30;;;;;;;11.13;1.45;;;;;;;14.51;52.29;101024.13;4997351;28;20045;-68
2023/04/11 09:16:58;;;;;;;8.20;1.45;;;;;;;13.98;54.04;101025.84;4994908;28;20453;-67
2023/04/11 09:19:25;;;;;;;15.13;2.85;;;;;;;14.41;53.71;101019.16;4997423;28;20034;-66
2023/04/11 09:21:55;;;;;;;11.80;1.92;;;;;;;14.71;52.66;101023.66;4996575;28;20025;-68
2023/04/11 09:24:21;;;;;;;7.55;1.45;;;;;;;14.54;50.70;101038.63;4995330;28;20045;-69
2023/04/11 09:26:47;;;;;;;5.93;1.40;;;;;;;14.84;50.41;101034.28;4995294;28;20131;-68
2023/04/11 09:29:39;;;;;;;9.63;1.58;;;;;;;14.87;50.70;101025.31;4995756;28;20484;-68
2023/04/11 09:32:05;;;;;;;9.77;2.22;;;;;;;15.33;52.08;101033.78;4991540;28;20054;-67
2023/04/11 09:34:32;;;;;;;6.75;1.40;;;;;;;15.14;50.90;101026.47;4982747;28;20476;-66
2023/04/11 09:36:58;;;;;;;12.05;1.75;;;;;;;15.40;52.03;101044.31;4994614;28;20054;-67
2023/04/11 09:39:27;;;;;;;13.45;2.10;;;;;;;14.95;50.73;101040.88;4982150;28;20084;-67
2023/04/11 09:41:52;;;;;;;10.98;1.75;;;;;;;14.48;49.35;101036.72;4998479;28;20033;-67
2023/04/11 09:44:18;;;;;;;4.30;1.20;;;;;;;14.83;47.98;101030.09;4981452;28;20094;-67
2023/04/11 09:46:59;;;;;;;6.22;1.40;;;;;;;14.73;48.65;101048.63;4977169;28;20566;-67
2023/04/11 09:49:24;;;;;;;4.93;1.80;;;;;;;14.78;46.36;101053.28;4997976;28;20424;-68
2023/04/11 09:51:51;;;;;;;5.95;1.73;;;;;;;14.96;46.25;101063.41;4992357;28;20046;-67
2023/04/11 09:54:19;;;;;;;6.20;1.55;;;;;;;14.77;47.67;101060.31;4992554;28;20129;-67
2023/04/11 09:56:45;;;;;;;9.82;1.60;;;;;;;14.37;48.80;101061.41;4975079;28;20048;-69
2023/04/11 09:59:11;;;;;;;7.03;1.80;;;;;;;14.54;49.40;101064.72;4991527;28;20407;-68
2023/04/11 10:01:37;;;;;;;9.13;2.22;;;;;;;14.46;48.29;101057.75;4979273;28;20030;-70
2023/04/11 10:04:03;;;;;;;8.35;1.73;;;;;;;14.43;46.89;101067.72;4994759;28;20060;-68
2023/04/11 10:06:41;;;;;;;11.10;2.38;;;;;;;14.17;46.41;101063.69;4981018;28;20042;-67
2023/04/11 10:09:09;;;;;;;9.48;2.33;;;;;;;14.40;47.46;101064.50;4991708;28;20042;-68
2023/04/11 10:11:35;;;;;;;11.35;2.25;;;;;;;14.30;47.98;101065.72;4988920;28;20041;-67
2023/04/11 10:14:01;;;;;;;7.68;2.30;;;;;;;14.11;49.22;101080.84;4994219;28;20038;-67
2023/04/11 10:16:30;;;;;;;7.13;2.40;;;;;;;13.55;48.96;101085.34;4965805;28;20050;-67
2023/04/11 10:18:55;;;;;;;6.05;1.92;;;;;;;13.92;48.02;101082.09;4992905;28;20038;-67
2023/04/11 10:21:33;;;;;;;13.75;3.13;;;;;;;13.46;49.29;101071.53;4993480;28;20402;-68
2023/04/11 10:24:12;;;;;;;8.70;2.42;;;;;;;13.37;48.15;101072.53;4994865;28;20574;-67
2023/04/11 10:26:53;;;;;;;6.90;2.10;;;;;;;13.05;47.64;101074.19;4992929;28;20026;-67
2023/04/11 10:32:23;;;;;;;6.35;1.88;;;;;;;13.51;48.71;101082.25;4988756;28;20044;-67
2023/04/11 10:34:48;;;;;;;11.35;2.53;;;;;;;13.72;47.28;101080.88;4977567;28;20504;-69
2023/04/11 10:37:14;;;;;;;9.32;2.25;;;;;;;13.90;47.14;101064.97;4997552;28;20048;-67
2023/04/11 10:39:49;;;;;;;7.90;1.92;;;;;;;14.15;45.47;101061.25;4997599;28;20037;-66
2023/04/11 10:42:37;;;;;;;8.98;2.22;;;;;;;14.49;46.51;101054.00;4999594;28;20056;-67
2023/04/11 10:45:29;;;;;;;9.82;2.50;;;;;;;14.14;44.68;101077.06;4998350;28;20389;-67
2023/04/11 10:47:57;;;;;;;7.40;1.90;;;;;;;13.85;46.63;101064.69;4992086;28;20070;-67
2023/04/11 10:50:25;;;;;;;8.73;2.10;;;;;;;13.96;46.35;101061.69;4980395;28;20092;-67
2023/04/11 10:53:08;;;;;;;9.35;2.35;;;;;;;14.37;47.65;101053.59;4976072;28;20112;-67
2023/04/11 10:55:47;;;;;;;6.10;1.85;;;;;;;14.41;46.72;101067.94;4994124;28;20079;-67
2023/04/11 10:58:20;;;;;;;8.57;2.28;;;;;;;14.67;46.24;101056.31;4980865;28;20053;-67
2023/04/11 11:00:48;;;;;;;;;;;;;;;14.63;44.44;101052.44;4998264;28;20042;-67
2023/04/11 11:03:24;;;;;;;10.45;2.72;;;;;;;15.08;46.27;101056.75;4997368;28;19948;-66
2023/04/11 11:06:07;;;;;;;7.28;2.55;;;;;;;14.96;45.19;101053.78;4981435;28;20034;-67
2023/04/11 11:08:40;;;;;;;8.02;2.60;;;;;;;14.76;45.25;101050.03;5000036;28;20116;-68
2023/04/11 11:11:10;;;;;;;6.80;1.98;;;;;;;14.88;46.29;101056.47;4999599;28;20060;-67
2023/04/11 11:13:50;;;;;;;6.00;1.67;;;;;;;14.52;44.54;101059.69;4998877;28;20038;-67
2023/04/11 11:16:23;;;;;;;6.57;1.90;;;;;;;14.29;46.54;101064.09;4994823;28;20041;-67
2023/04/11 11:18:51;;;;;;;7.25;2.90;;;;;;;14.52;45.33;101059.69;4994870;28;20136;-68
2023/04/11 11:21:22;;;;;;;6.82;2.20;;;;;;;14.29;45.93;101051.84;4997317;28;20033;-66
2023/04/11 11:24:02;;;;;;;12.25;2.03;;;;;;;14.44;46.68;101051.91;4995128;28;20435;-67
2023/04/11 11:26:38;;;;;;;8.23;2.58;;;;;;;14.95;47.78;101057.34;4981372;28;20695;-67